Time;durP1;ratioP1;P1;durP2;ratioP2;P2;SDS_P1;SDS_P2;PMS_P1;PMS_P2;Temp;Humidity;BMP_temperature;BMP_pressure;BME280_temperature;BME280_humidity;BME280_pressure;Samples;Min_cycle;Max_cycle;Signal;HPM_P1;HPM_P2
2023/05/21 00:00:14;;;;;;;4.45;3.58;;;14.80;99.90;;;;;;5094991;28;20070;-58
2023/05/21 00:02:41;;;;;;;8.40;3.42;;;14.80;99.90;;;;;;5094757;28;20119;-58
2023/05/21 00:05:12;;;;;;;6.93;3.17;;;14.80;99.90;;;;;;5094783;28;20044;-58
2023/05/21 00:07:37;;;;;;;4.80;3.13;;;14.80;99.90;;;;;;5094408;28;20525;-58
2023/05/21 00:10:04;;;;;;;6.68;3.58;;;14.70;99.90;;;;;;5095024;28;20036;-59
2023/05/21 00:12:31;;;;;;;8.02;3.50;;;14.70;99.90;;;;;;5094645;28;20032;-58
2023/05/21 00:14:57;;;;;;;5.38;3.33;;;14.70;99.90;;;;;;5094627;28;20044;-58
2023/05/21 00:17:22;;;;;;;5.65;3.88;;;14.70;99.90;;;;;;5094493;28;20059;-58
2023/05/21 00:19:51;;;;;;;4.03;3.33;;;14.70;99.90;;;;;;5094634;28;20068;-58
2023/05/21 00:22:17;;;;;;;4.07;3.13;;;14.70;99.90;;;;;;5094592;28;20036;-58
2023/05/21 00:24:45;;;;;;;10.30;3.53;;;14.70;99.90;;;;;;5094352;28;20039;-58
2023/05/21 00:27:12;;;;;;;5.40;3.40;;;14.70;99.90;;;;;;5094678;28;20073;-58
2023/05/21 00:29:38;;;;;;;7.65;3.67;;;14.70;99.90;;;;;;5093891;28;20039;-58
2023/05/21 00:32:04;;;;;;;6.70;3.22;;;14.70;99.90;;;;;;5094078;28;20391;-58
2023/05/21 00:34:30;;;;;;;5.82;3.58;;;14.70;99.90;;;;;;5094419;28;20036;-58
2023/05/21 00:36:56;;;;;;;6.63;3.25;;;14.70;99.90;;;;;;5094305;28;20527;-58
2023/05/21 00:39:22;;;;;;;5.10;3.10;;;14.70;99.90;;;;;;5094174;28;20043;-58
2023/05/21 00:41:48;;;;;;;8.80;3.60;;;14.70;99.90;;;;;;5091883;28;20036;-58
2023/05/21 00:44:15;;;;;;;6.13;3.30;;;14.70;99.90;;;;;;5082278;28;20170;-58
2023/05/21 00:46:43;;;;;;;6.40;3.80;;;14.60;99.90;;;;;;5094049;28;20040;-58
2023/05/21 00:49:13;;;;;;;6.32;3.33;;;14.60;99.90;;;;;;5094173;28;20048;-58
2023/05/21 00:51:39;;;;;;;5.63;3.33;;;14.70;99.90;;;;;;5079845;28;20063;-58
2023/05/21 00:54:05;;;;;;;6.20;3.85;;;14.60;99.90;;;;;;5093811;28;20390;-58
2023/05/21 00:56:31;;;;;;;5.25;3.42;;;14.60;99.90;;;;;;5094008;28;20043;-58
2023/05/21 00:58:58;;;;;;;7.32;3.75;;;14.50;99.90;;;;;;5094005;28;20036;-58
2023/05/21 01:01:24;;;;;;;9.25;3.03;;;14.60;99.90;;;;;;5093871;28;20363;-58
2023/05/21 01:03:53;;;;;;;9.73;3.83;;;14.60;99.90;;;;;;5092484;28;20036;-58
2023/05/21 01:06:19;;;;;;;5.15;3.70;;;14.60;99.90;;;;;;5087563;28;20036;-58
2023/05/21 01:08:45;;;;;;;5.53;3.42;;;14.60;99.90;;;;;;5072906;28;20546;-58
2023/05/21 01:11:13;;;;;;;8.70;4.00;;;14.60;99.90;;;;;;5077094;28;20040;-58
2023/05/21 01:13:40;;;;;;;9.10;3.78;;;14.60;99.90;;;;;;5084541;28;20098;-58
2023/05/21 01:16:07;;;;;;;6.07;3.58;;;14.60;99.90;;;;;;5083236;28;20098;-58
2023/05/21 01:18:56;;;;;;;7.72;3.80;;;14.60;99.90;;;;;;5088474;28;20040;-58
2023/05/21 01:21:24;;;;;;;5.20;3.50;;;14.60;99.90;;;;;;5089982;28;20059;-58
2023/05/21 01:23:50;;;;;;;9.10;3.90;;;14.60;99.90;;;;;;5088581;28;20051;-58
2023/05/21 01:26:17;;;;;;;15.02;4.43;;;14.60;99.90;;;;;;5082738;28;20345;-58
2023/05/21 01:28:42;;;;;;;9.82;3.83;;;14.60;99.90;;;;;;5093092;28;20036;-58
2023/05/21 01:31:32;;;;;;;6.57;4.05;;;14.60;99.90;;;;;;5093088;28;20044;-58
2023/05/21 01:34:01;;;;;;;5.95;4.05;;;14.60;99.90;;;;;;5093160;28;20055;-58
2023/05/21 01:36:39;;;;;;;5.80;3.97;;;14.50;99.90;;;;;;5093377;28;20040;-58
2023/05/21 01:39:30;;;;;;;8.25;3.95;;;14.50;99.90;;;;;;5093135;28;20028;-58
2023/05/21 01:41:56;;;;;;;6.93;3.63;;;14.50;99.90;;;;;;5080601;28;20036;-58
2023/05/21 01:44:24;;;;;;;9.23;3.90;;;14.50;99.90;;;;;;5090768;28;20044;-58
2023/05/21 01:46:52;;;;;;;5.43;3.90;;;14.40;99.90;;;;;;5093108;28;20044;-58
2023/05/21 01:49:18;;;;;;;4.68;3.53;;;14.40;99.90;;;;;;5092817;28;20051;-58
2023/05/21 01:51:44;;;;;;;6.68;4.22;;;14.50;99.90;;;;;;5092621;28;20048;-58
2023/05/21 01:54:10;;;;;;;10.18;4.60;;;14.50;99.90;;;;;;5092742;28;20040;-58
2023/05/21 01:56:35;;;;;;;7.30;3.92;;;14.50;99.90;;;;;;5092881;28;20180;-58
2023/05/21 01:59:01;;;;;;;8.40;4.45;;;14.40;99.90;;;;;;5092655;28;20050;-58
2023/05/21 02:01:29;;;;;;;6.55;4.32;;;14.40;99.90;;;;;;5092956;28;20462;-58
2023/05/21 02:03:56;;;;;;;6.72;4.40;;;14.50;99.90;;;;;;5092697;28;20044;-58
2023/05/21 02:06:21;;;;;;;9.43;4.00;;;14.40;99.90;;;;;;5092736;28;20051;-58
2023/05/21 02:08:47;;;;;;;8.23;4.80;;;14.40;99.90;;;;;;5092531;28;20679;-58
2023/05/21 02:11:13;;;;;;;5.72;4.07;;;14.30;99.90;;;;;;5092346;28;20386;-58
2023/05/21 02:13:41;;;;;;;7.70;4.45;;;14.30;99.90;;;;;;5092490;28;20035;-58
2023/05/21 02:16:13;;;;;;;7.97;4.82;;;14.30;99.90;;;;;;5079836;28;20405;-58
2023/05/21 02:18:43;;;;;;;5.57;4.43;;;14.20;99.90;;;;;;5091533;28;20032;-58
2023/05/21 02:21:12;;;;;;;9.50;4.53;;;14.30;99.90;;;;;;5092477;28;20040;-58
2023/05/21 02:23:38;;;;;;;6.60;4.40;;;14.20;99.90;;;;;;5092326;28;20034;-58
2023/05/21 02:26:04;;;;;;;7.90;4.38;;;14.30;99.90;;;;;;5092459;28;20390;-58
2023/05/21 02:28:31;;;;;;;10.52;5.00;;;14.20;99.90;;;;;;5091233;28;20553;-58
2023/05/21 02:30:57;;;;;;;10.60;5.50;;;14.30;99.90;;;;;;5092429;28;20079;-58
2023/05/21 02:33:22;;;;;;;5.90;4.35;;;14.20;99.90;;;;;;5092096;28;20074;-58
2023/05/21 02:35:48;;;;;;;11.27;4.85;;;14.20;99.90;;;;;;5092304;28;20089;-58
2023/05/21 02:38:18;;;;;;;6.70;4.82;;;14.10;99.90;;;;;;5092267;28;20060;-58
2023/05/21 02:40:46;;;;;;;8.05;5.25;;;14.10;99.90;;;;;;5092482;28;20024;-58
2023/05/21 02:43:12;;;;;;;8.95;4.97;;;14.10;99.90;;;;;;5092338;28;20394;-58
2023/05/21 02:45:38;;;;;;;8.38;4.60;;;14.10;99.90;;;;;;5092113;28;20043;-58
2023/05/21 02:48:04;;;;;;;8.52;5.28;;;14.10;99.90;;;;;;5092379;28;20058;-58
2023/05/21 02:50:29;;;;;;;7.43;4.82;;;14.10;99.90;;;;;;5091942;28;20032;-58
2023/05/21 02:52:55;;;;;;;7.65;4.55;;;14.10;99.90;;;;;;5090873;28;20044;-58
2023/05/21 02:55:21;;;;;;;9.20;4.82;;;14.10;99.90;;;;;;5096215;28;20113;-58
2023/05/21 02:57:47;;;;;;;8.18;4.93;;;14.10;99.90;;;;;;5095952;28;20106;-58
2023/05/21 03:00:13;;;;;;;7.53;4.90;;;14.00;99.90;;;;;;5095950;28;20103;-57
2023/05/21 03:02:39;;;;;;;11.27;5.25;;;14.10;99.90;;;;;;5095846;28;20085;-58
2023/05/21 03:05:05;;;;;;;7.30;5.05;;;14.10;99.90;;;;;;5095950;28;20118;-57
2023/05/21 03:07:31;;;;;;;12.07;5.20;;;14.10;99.90;;;;;;5096145;28;20452;-58
2023/05/21 03:09:56;;;;;;;10.80;5.18;;;14.00;99.90;;;;;;5083256;28;20044;-58
2023/05/21 03:12:22;;;;;;;11.82;5.55;;;14.10;99.90;;;;;;5075421;28;20044;-57
2023/05/21 03:14:50;;;;;;;10.00;5.93;;;14.00;99.90;;;;;;5075790;28;20032;-57
2023/05/21 03:17:16;;;;;;;9.98;6.20;;;13.90;99.90;;;;;;5083557;28;20036;-58
2023/05/21 03:19:43;;;;;;;8.60;4.93;;;13.90;99.90;;;;;;5095756;28;20370;-57
2023/05/21 03:22:10;;;;;;;7.30;5.05;;;13.90;99.90;;;;;;5095999;28;20036;-57
2023/05/21 03:24:40;;;;;;;8.70;5.72;;;13.80;99.90;;;;;;5095561;28;20555;-58
2023/05/21 03:27:06;;;;;;;10.27;5.75;;;13.90;99.90;;;;;;5095495;28;20058;-57
2023/05/21 03:29:32;;;;;;;9.27;6.00;;;13.90;99.90;;;;;;5095550;28;20040;-58
2023/05/21 03:31:58;;;;;;;9.40;5.38;;;13.80;99.90;;;;;;5095297;28;20460;-57
2023/05/21 03:34:23;;;;;;;9.95;5.68;;;13.80;99.90;;;;;;5095471;28;20115;-57
2023/05/21 03:36:49;;;;;;;8.00;4.82;;;13.80;99.90;;;;;;5095429;28;20068;-57
2023/05/21 03:39:15;;;;;;;12.35;5.30;;;13.70;99.90;;;;;;5095689;28;20024;-57
2023/05/21 03:41:41;;;;;;;9.93;5.80;;;13.80;99.90;;;;;;5095437;28;20093;-57
2023/05/21 03:44:07;;;;;;;8.27;5.10;;;13.80;99.90;;;;;;5095228;28;20043;-57
2023/05/21 03:46:32;;;;;;;8.90;5.68;;;13.90;99.90;;;;;;5095225;28;20032;-58
2023/05/21 03:48:58;;;;;;;9.55;4.65;;;13.80;99.90;;;;;;5085006;28;20039;-58
2023/05/21 03:51:24;;;;;;;12.07;5.47;;;13.80;99.90;;;;;;5095386;28;20044;-57
2023/05/21 03:53:50;;;;;;;12.15;5.18;;;13.70;99.90;;;;;;5106730;27;20047;-58
2023/05/21 03:56:16;;;;;;;7.22;4.70;;;13.70;99.90;;;;;;5095299;28;20093;-58
2023/05/21 03:58:42;;;;;;;8.43;5.15;;;13.80;99.90;;;;;;5095135;28;20054;-57
2023/05/21 04:01:09;;;;;;;9.27;5.22;;;13.80;99.90;;;;;;5094920;28;20474;-57
2023/05/21 04:03:35;;;;;;;7.72;4.43;;;13.70;99.90;;;;;;5094810;28;20479;-57
2023/05/21 04:06:01;;;;;;;8.90;5.43;;;13.80;99.90;;;;;;5093522;28;20032;-57
2023/05/21 04:08:27;;;;;;;8.98;5.30;;;13.80;99.90;;;;;;5094785;28;20054;-57
2023/05/21 04:10:52;;;;;;;15.45;5.50;;;13.80;99.90;;;;;;5094717;28;20462;-57
2023/05/21 04:13:18;;;;;;;11.68;5.50;;;13.70;99.90;;;;;;5094911;28;20120;-58
2023/05/21 04:15:45;;;;;;;10.70;4.93;;;13.80;99.90;;;;;;5085052;28;20040;-58
2023/05/21 04:18:12;;;;;;;8.73;5.00;;;13.70;99.90;;;;;;5089854;28;20092;-58
2023/05/21 04:20:38;;;;;;;9.30;4.93;;;13.80;99.90;;;;;;5094738;28;20039;-57
2023/05/21 04:23:03;;;;;;;12.00;5.43;;;13.80;99.90;;;;;;5094604;28;20040;-57
2023/05/21 04:25:29;;;;;;;8.30;3.80;;;13.90;99.90;;;;;;5094481;28;20485;-57
2023/05/21 04:27:55;;;;;;;10.13;5.20;;;13.90;99.90;;;;;;5094556;28;20067;-57
2023/05/21 04:30:22;;;;;;;7.05;4.30;;;14.00;99.90;;;;;;5094357;28;20071;-57
2023/05/21 04:32:48;;;;;;;9.13;4.72;;;14.00;99.90;;;;;;5094623;28;20048;-57
2023/05/21 04:35:14;;;;;;;9.75;4.45;;;13.90;99.90;;;;;;5094380;28;20032;-58
2023/05/21 04:37:41;;;;;;;10.10;3.88;;;14.00;99.90;;;;;;5094146;28;20055;-58
2023/05/21 04:40:08;;;;;;;8.15;4.22;;;13.90;99.90;;;;;;5094499;28;20044;-57
2023/05/21 04:42:34;;;;;;;8.75;4.20;;;14.00;99.90;;;;;;5094358;28;20040;-57
2023/05/21 04:45:00;;;;;;;8.27;4.40;;;14.00;99.90;;;;;;5094267;28;20050;-57
2023/05/21 04:47:28;;;;;;;8.18;5.13;;;14.00;99.90;;;;;;5094231;28;20457;-57
2023/05/21 04:49:54;;;;;;;8.15;4.53;;;14.00;99.90;;;;;;5094497;28;20039;-57
2023/05/21 04:52:20;;;;;;;10.23;4.75;;;14.00;99.90;;;;;;5094056;28;20040;-57
2023/05/21 04:54:46;;;;;;;8.07;4.63;;;14.00;99.90;;;;;;5093871;28;20494;-58
2023/05/21 04:57:12;;;;;;;10.02;4.28;;;14.00;99.90;;;;;;5093837;28;20111;-58
2023/05/21 04:59:38;;;;;;;10.65;4.57;;;14.10;99.90;;;;;;5093865;28;20114;-58
2023/05/21 05:02:04;;;;;;;7.30;4.10;;;14.10;99.90;;;;;;5094029;28;20150;-58
2023/05/21 05:04:30;;;;;;;7.50;4.57;;;14.10;99.90;;;;;;5093833;28;20046;-57
2023/05/21 05:06:56;;;;;;;11.10;4.47;;;14.10;99.90;;;;;;5093826;28;20447;-57
2023/05/21 05:09:23;;;;;;;8.65;4.13;;;14.10;99.90;;;;;;5093588;28;20040;-58
2023/05/21 05:11:49;;;;;;;9.30;4.57;;;14.10;99.90;;;;;;5093392;28;20047;-57
2023/05/21 05:14:15;;;;;;;8.65;3.75;;;14.10;99.90;;;;;;5093617;28;20032;-58
2023/05/21 05:16:41;;;;;;;11.95;4.50;;;14.10;99.90;;;;;;5085096;28;20044;-57
2023/05/21 05:19:07;;;;;;;8.75;3.72;;;14.10;99.90;;;;;;5093342;28;20062;-57
2023/05/21 05:21:33;;;;;;;5.68;3.72;;;14.20;99.90;;;;;;5093216;28;20028;-57
2023/05/21 05:23:59;;;;;;;9.50;3.60;;;14.30;99.90;;;;;;5093444;28;20067;-57
2023/05/21 05:26:25;;;;;;;8.63;4.50;;;14.30;99.90;;;;;;5093250;28;20024;-57
2023/05/21 05:28:51;;;;;;;9.40;4.18;;;14.50;99.90;;;;;;5093474;28;20036;-58
2023/05/21 05:31:16;;;;;;;7.32;3.58;;;14.40;99.90;;;;;;5093412;28;20044;-57
2023/05/21 05:33:42;;;;;;;6.22;3.80;;;14.60;99.90;;;;;;5093462;28;20036;-57
2023/05/21 05:36:08;;;;;;;8.48;4.00;;;14.60;99.90;;;;;;5093319;28;20036;-57
2023/05/21 05:38:34;;;;;;;12.77;4.43;;;14.70;99.90;;;;;;5092981;28;20028;-58
2023/05/21 05:41:00;;;;;;;6.38;3.83;;;14.80;99.90;;;;;;5092839;28;20478;-57
2023/05/21 05:43:25;;;;;;;6.68;4.28;;;14.80;99.90;;;;;;5092994;28;20036;-58
2023/05/21 05:45:51;;;;;;;8.75;4.05;;;14.90;99.90;;;;;;5093319;28;20032;-57
2023/05/21 05:48:17;;;;;;;9.65;4.28;;;14.90;99.90;;;;;;5092884;28;20035;-58
2023/05/21 05:50:43;;;;;;;11.10;3.70;;;15.00;99.90;;;;;;5093271;28;20119;-57
2023/05/21 05:53:11;;;;;;;8.35;4.18;;;15.00;99.90;;;;;;5091701;28;20080;-58
2023/05/21 05:55:38;;;;;;;8.50;4.00;;;15.00;99.90;;;;;;5092648;28;20127;-58
2023/05/21 05:58:03;;;;;;;8.60;3.90;;;15.10;99.90;;;;;;5092940;28;20178;-58
2023/05/21 06:00:29;;;;;;;6.38;3.55;;;15.10;99.90;;;;;;5092676;28;20886;-57
2023/05/21 06:02:55;;;;;;;9.45;3.92;;;15.00;99.90;;;;;;5092979;28;20036;-58
2023/05/21 06:05:20;;;;;;;9.68;4.05;;;15.20;99.90;;;;;;5092263;28;20040;-58
2023/05/21 06:07:46;;;;;;;5.22;3.58;;;15.10;99.90;;;;;;5092853;28;20363;-58
2023/05/21 06:10:12;;;;;;;8.75;3.78;;;15.10;99.90;;;;;;5092848;28;20058;-57
2023/05/21 06:12:37;;;;;;;9.55;3.25;;;15.20;99.90;;;;;;5092539;28;20043;-57
2023/05/21 06:15:04;;;;;;;7.57;3.85;;;15.30;99.90;;;;;;5088910;28;20467;-57
2023/05/21 06:17:30;;;;;;;10.18;4.85;;;15.30;99.90;;;;;;5082218;28;20040;-57
2023/05/21 06:19:56;;;;;;;7.07;3.80;;;15.40;99.90;;;;;;5092591;28;20421;-57
2023/05/21 06:22:21;;;;;;;9.35;3.70;;;15.40;99.90;;;;;;5092573;28;20039;-57
2023/05/21 06:24:47;;;;;;;7.50;3.55;;;15.30;99.90;;;;;;5078458;28;20039;-57
2023/05/21 06:27:13;;;;;;;5.80;3.50;;;15.40;99.90;;;;;;5092743;28;20093;-57
2023/05/21 06:29:39;;;;;;;7.82;4.03;;;15.50;99.90;;;;;;5091800;28;20432;-57
2023/05/21 06:32:07;;;;;;;11.52;3.67;;;15.70;99.90;;;;;;5092311;28;20043;-57
2023/05/21 06:34:32;;;;;;;10.00;3.97;;;15.70;99.90;;;;;;5092261;28;20047;-57
2023/05/21 06:36:58;;;;;;;8.05;4.03;;;15.70;99.90;;;;;;5092246;28;20036;-57
2023/05/21 06:39:23;;;;;;;7.85;3.60;;;15.70;99.90;;;;;;5092075;28;20032;-57
2023/05/21 06:41:49;;;;;;;8.48;3.40;;;15.80;99.90;;;;;;5092558;28;20497;-57
2023/05/21 06:44:15;;;;;;;7.63;4.10;;;15.90;99.90;;;;;;5092642;28;20098;-57
2023/05/21 06:46:42;;;;;;;6.60;3.42;;;16.10;99.90;;;;;;5092245;28;20063;-57
2023/05/21 06:49:07;;;;;;;9.95;4.05;;;16.10;99.90;;;;;;5090963;28;20413;-57
2023/05/21 06:51:33;;;;;;;7.32;3.97;;;16.30;99.90;;;;;;5092032;28;20040;-57
2023/05/21 06:53:59;;;;;;;5.85;3.90;;;16.50;99.90;;;;;;5092142;28;20052;-57
2023/05/21 06:56:25;;;;;;;7.53;3.25;;;16.60;99.90;;;;;;5092083;28;20028;-57
2023/05/21 06:58:51;;;;;;;11.88;4.65;;;16.70;99.90;;;;;;5092224;28;20035;-57
2023/05/21 07:01:17;;;;;;;8.40;3.88;;;16.80;99.90;;;;;;5081961;28;20076;-57
2023/05/21 07:03:42;;;;;;;8.70;4.00;;;16.90;99.90;;;;;;5074291;28;20079;-57
2023/05/21 07:06:08;;;;;;;9.32;4.03;;;16.90;99.90;;;;;;5071616;28;20039;-57
2023/05/21 07:08:34;;;;;;;8.25;4.05;;;16.90;99.90;;;;;;5071698;28;20502;-58
2023/05/21 07:10:59;;;;;;;7.38;3.90;;;16.90;99.90;;;;;;5071517;28;20040;-58
2023/05/21 07:13:25;;;;;;;6.57;3.60;;;16.90;99.90;;;;;;5071480;28;20083;-58
2023/05/21 07:15:50;;;;;;;10.02;4.38;;;17.00;99.90;;;;;;5071867;28;20047;-58
2023/05/21 07:18:16;;;;;;;8.38;3.95;;;17.00;99.90;;;;;;5087898;28;20036;-57
2023/05/21 07:20:42;;;;;;;9.90;3.67;;;17.10;99.90;;;;;;5091908;28;20454;-58
2023/05/21 07:23:07;;;;;;;9.48;3.97;;;17.10;99.90;;;;;;5091687;28;20085;-58
2023/05/21 07:25:33;;;;;;;11.43;4.15;;;17.10;99.90;;;;;;5091549;28;20076;-58
2023/05/21 07:27:59;;;;;;;6.72;3.63;;;17.20;99.90;;;;;;5078541;28;20059;-58
2023/05/21 07:30:24;;;;;;;6.88;3.70;;;17.20;99.90;;;;;;5071356;28;20032;-57
2023/05/21 07:32:50;;;;;;;6.50;3.17;;;17.30;99.90;;;;;;5080782;28;20059;-58
2023/05/21 07:35:15;;;;;;;12.73;3.55;;;17.40;99.90;;;;;;5091551;28;20055;-58
2023/05/21 07:37:41;;;;;;;9.80;3.47;;;17.30;99.90;;;;;;5091576;28;20399;-58
2023/05/21 07:40:07;;;;;;;7.15;3.60;;;17.40;99.90;;;;;;5093031;28;20044;-58
2023/05/21 07:42:33;;;;;;;5.93;3.72;;;17.40;99.90;;;;;;5092076;28;20397;-58
2023/05/21 07:44:59;;;;;;;5.43;3.13;;;17.40;99.90;;;;;;5086613;28;20123;-58
2023/05/21 07:47:25;;;;;;;6.00;3.17;;;17.40;99.90;;;;;;5095326;28;20036;-58
2023/05/21 07:49:51;;;;;;;7.40;3.08;;;17.40;99.90;;;;;;5095333;28;20062;-58
2023/05/21 07:52:16;;;;;;;6.80;3.47;;;17.50;99.90;;;;;;5094833;28;20549;-58
2023/05/21 07:54:42;;;;;;;6.90;3.42;;;17.70;99.90;;;;;;5094921;28;20371;-58
2023/05/21 07:57:08;;;;;;;6.25;3.40;;;17.80;99.90;;;;;;5095229;28;20067;-58
2023/05/21 07:59:33;;;;;;;9.27;3.63;;;18.00;99.90;;;;;;5094943;28;20044;-58
2023/05/21 08:01:59;;;;;;;6.15;2.92;;;18.00;99.90;;;;;;5095218;28;20040;-58
2023/05/21 08:04:25;;;;;;;7.78;3.47;;;18.00;99.90;;;;;;5094747;28;20044;-58
2023/05/21 08:06:51;;;;;;;6.13;3.17;;;18.00;99.90;;;;;;5095180;28;20100;-58
2023/05/21 08:09:18;;;;;;;8.90;3.78;;;18.00;99.90;;;;;;5094749;28;20063;-58
2023/05/21 08:11:44;;;;;;;8.73;3.53;;;18.00;99.90;;;;;;5094776;28;20036;-58
2023/05/21 08:14:10;;;;;;;6.15;3.08;;;18.00;99.90;;;;;;5095146;28;20044;-58
2023/05/21 08:16:36;;;;;;;11.75;3.53;;;18.10;99.90;;;;;;5086514;28;20398;-58
2023/05/21 08:19:02;;;;;;;6.35;3.42;;;18.30;99.90;;;;;;5093317;28;20044;-58
2023/05/21 08:21:27;;;;;;;8.65;3.17;;;18.30;99.90;;;;;;5093199;28;20047;-58
2023/05/21 08:23:53;;;;;;;10.73;3.53;;;18.30;99.90;;;;;;5094682;28;20473;-57
2023/05/21 08:26:20;;;;;;;9.55;3.45;;;18.30;99.90;;;;;;5094205;28;20348;-58
2023/05/21 08:28:46;;;;;;;7.57;3.00;;;18.40;99.90;;;;;;5085577;28;20046;-58
2023/05/21 08:31:11;;;;;;;7.85;3.30;;;18.50;99.90;;;;;;5085421;28;20032;-57
2023/05/21 08:33:37;;;;;;;9.88;4.18;;;18.60;99.90;;;;;;5089406;28;20066;-59
2023/05/21 08:36:05;;;;;;;9.82;4.38;;;18.60;99.90;;;;;;5093725;28;20031;-57
2023/05/21 08:38:31;;;;;;;19.83;9.45;;;18.60;99.90;;;;;;5086615;28;20043;-58
2023/05/21 08:40:58;;;;;;;13.52;6.70;;;18.70;99.90;;;;;;5093588;28;20039;-57
2023/05/21 08:43:27;;;;;;;17.35;8.90;;;18.80;99.90;;;;;;5094092;28;20097;-58
2023/05/21 08:45:56;;;;;;;4.97;3.72;;;19.00;99.90;;;;;;5093877;28;20101;-58
2023/05/21 08:48:22;;;;;;;12.00;6.88;;;18.90;99.90;;;;;;5092934;28;20040;-57
2023/05/21 08:50:50;;;;;;;10.85;5.22;;;19.10;99.90;;;;;;5093093;28;20118;-58
2023/05/21 08:53:16;;;;;;;9.95;4.55;;;19.20;99.90;;;;;;5093552;28;20044;-58
2023/05/21 08:55:42;;;;;;;13.20;6.30;;;19.30;99.90;;;;;;5093803;28;20381;-58
2023/05/21 08:58:09;;;;;;;14.27;4.18;;;19.50;99.90;;;;;;5093653;28;20039;-58
2023/05/21 09:00:34;;;;;;;10.80;4.57;;;19.50;99.90;;;;;;5092412;28;20482;-58
2023/05/21 09:03:06;;;;;;;7.20;3.78;;;19.80;99.90;;;;;;5093382;28;20039;-58
2023/05/21 09:05:37;;;;;;;8.20;3.85;;;19.60;99.90;;;;;;5075415;28;20065;-59
2023/05/21 09:08:14;;;;;;;9.63;3.97;;;19.70;99.90;;;;;;5093555;28;20111;-58
2023/05/21 09:10:51;;;;;;;10.43;3.53;;;20.00;99.90;;;;;;5093358;28;20119;-58
2023/05/21 09:13:17;;;;;;;6.43;4.03;;;20.10;99.90;;;;;;5093424;28;20039;-59
2023/05/21 09:15:44;;;;;;;11.52;4.40;;;19.90;99.90;;;;;;5084142;28;20124;-58
2023/05/21 09:18:11;;;;;;;6.72;3.30;;;19.80;99.90;;;;;;5088446;28;20036;-59
2023/05/21 09:20:36;;;;;;;9.63;3.40;;;19.90;99.90;;;;;;5092022;28;20076;-58
2023/05/21 09:23:04;;;;;;;6.68;3.88;;;20.10;99.90;;;;;;5093194;28;20072;-59
2023/05/21 09:25:31;;;;;;;7.13;3.35;;;20.10;99.90;;;;;;5093098;28;20040;-59
2023/05/21 09:28:00;;;;;;;13.25;3.65;;;20.10;99.90;;;;;;5093140;28;20498;-59
2023/05/21 09:30:26;;;;;;;7.68;3.60;;;19.90;99.90;;;;;;5092962;28;20036;-59
2023/05/21 09:32:59;;;;;;;5.30;3.10;;;19.90;99.90;;;;;;5093161;28;20554;-59
2023/05/21 09:35:24;;;;;;;6.90;3.30;;;20.00;99.90;;;;;;5093123;28;20047;-59
2023/05/21 09:37:52;;;;;;;8.05;3.35;;;20.10;99.90;;;;;;5093124;28;20036;-59
2023/05/21 09:40:21;;;;;;;5.75;3.28;;;20.40;99.90;;;;;;5093220;28;20051;-58
2023/05/21 09:42:50;;;;;;;5.82;3.00;;;20.60;99.90;;;;;;5092964;28;20048;-57
2023/05/21 09:45:26;;;;;;;9.30;3.28;;;20.80;99.90;;;;;;5093222;28;20128;-58
2023/05/21 09:47:53;;;;;;;7.30;2.78;;;20.80;99.90;;;;;;5093235;28;20032;-58
2023/05/21 09:50:24;;;;;;;8.25;3.38;;;20.90;99.90;;;;;;5093035;28;20036;-58
2023/05/21 09:52:51;;;;;;;6.00;3.38;;;20.90;99.90;;;;;;5092686;28;20028;-58
2023/05/21 09:55:20;;;;;;;5.70;3.05;;;20.70;99.90;;;;;;5092931;28;20059;-58
2023/05/21 09:57:47;;;;;;;5.97;3.53;;;21.00;99.90;;;;;;5092845;28;20036;-58
2023/05/21 10:00:26;;;;;;;7.35;4.22;;;20.80;99.90;;;;;;5092744;28;20035;-59
2023/05/21 10:02:56;;;;;;;9.40;3.20;;;20.90;99.90;;;;;;5092269;28;20032;-58
2023/05/21 10:05:29;;;;;;;8.15;3.28;;;21.20;99.90;;;;;;5092768;28;20115;-58
2023/05/21 10:08:02;;;;;;;7.25;3.38;;;21.10;99.90;;;;;;5092432;28;20082;-58
2023/05/21 10:10:29;;;;;;;8.48;3.63;;;20.90;99.90;;;;;;5092461;28;20119;-58
2023/05/21 10:13:05;;;;;;;10.40;3.55;;;20.90;99.90;;;;;;5092435;28;20066;-58
2023/05/21 10:15:37;;;;;;;7.57;4.53;;;20.90;99.90;;;;;;5078792;28;20049;-58
2023/05/21 10:18:03;;;;;;;7.70;3.75;;;21.00;99.90;;;;;;5083346;28;20077;-58
2023/05/21 10:20:29;;;;;;;6.85;3.38;;;20.90;99.90;;;;;;5071201;28;20507;-58
2023/05/21 10:22:56;;;;;;;13.75;3.80;;;20.90;99.90;;;;;;5082537;28;20065;-58
2023/05/21 10:25:24;;;;;;;8.23;3.95;;;20.90;99.90;;;;;;5079176;28;20059;-58
2023/05/21 10:27:52;;;;;;;8.45;3.47;;;21.00;99.90;;;;;;5070736;28;20042;-58
2023/05/21 10:30:20;;;;;;;10.82;3.75;;;21.20;99.90;;;;;;5079371;28;20039;-58
2023/05/21 10:32:47;;;;;;;6.93;3.20;;;21.20;99.90;;;;;;5071900;28;20090;-59
2023/05/21 10:35:15;;;;;;;5.78;2.78;;;21.30;99.90;;;;;;5082933;28;20039;-58
2023/05/21 10:37:42;;;;;;;6.93;2.70;;;21.70;99.90;;;;;;5090356;28;20035;-59
2023/05/21 10:40:09;;;;;;;7.43;3.10;;;21.60;99.90;;;;;;5092188;28;20428;-59
2023/05/21 10:42:36;;;;;;;9.23;2.97;;;21.30;99.90;;;;;;5092102;28;20036;-59
2023/05/21 10:45:31;;;;;;;10.75;2.90;;;21.40;99.90;;;;;;5092123;28;20040;-59
2023/05/21 10:48:23;;;;;;;9.05;2.72;;;21.50;99.90;;;;;;5091967;28;20089;-59
2023/05/21 10:51:08;;;;;;;12.02;3.38;;;21.50;99.90;;;;;;5083760;28;20139;-59
2023/05/21 10:54:06;;;;;;;8.52;3.60;;;21.50;99.90;;;;;;5079289;28;20101;-59
2023/05/21 10:56:43;;;;;;;6.47;3.13;;;21.30;99.90;;;;;;5091747;28;20563;-59
2023/05/21 10:59:34;;;;;;;5.13;3.17;;;21.60;99.90;;;;;;5091798;28;20101;-59
2023/05/21 11:02:00;;;;;;;6.32;3.22;;;21.70;99.90;;;;;;5088858;28;20071;-59
2023/05/21 11:04:27;;;;;;;10.90;3.72;;;21.70;99.90;;;;;;5092005;28;20069;-59
2023/05/21 11:06:53;;;;;;;6.85;3.70;;;21.90;99.90;;;;;;5091959;28;20047;-59
2023/05/21 11:09:18;;;;;;;9.25;3.42;;;21.70;99.90;;;;;;5091537;28;20040;-59
2023/05/21 11:11:52;;;;;;;9.65;4.30;;;21.70;99.90;;;;;;5090641;28;20083;-59
2023/05/21 11:14:25;;;;;;;9.93;3.75;;;21.70;99.90;;;;;;5082563;28;20044;-59
2023/05/21 11:16:50;;;;;;;8.55;3.90;;;21.90;99.90;;;;;;5079423;28;20038;-59
2023/05/21 11:19:17;;;;;;;9.57;3.90;;;22.00;99.90;;;;;;5093924;28;20115;-59
2023/05/21 11:21:48;;;;;;;9.63;3.72;;;22.20;99.90;;;;;;5097575;28;20043;-59
2023/05/21 11:24:18;;;;;;;12.77;4.63;;;22.20;99.90;;;;;;5095297;28;20036;-59
2023/05/21 11:26:47;;;;;;;8.63;3.50;;;22.20;99.90;;;;;;5086623;28;20044;-60
2023/05/21 11:29:13;;;;;;;7.47;4.18;;;22.30;99.90;;;;;;5082935;28;20040;-61
2023/05/21 11:31:47;;;;;;;9.88;4.18;;;22.40;99.90;;;;;;5083031;28;20094;-61
2023/05/21 11:34:13;;;;;;;9.43;4.20;;;22.90;99.90;;;;;;5075467;28;20036;-61
2023/05/21 11:36:41;;;;;;;7.30;4.22;;;22.80;99.90;;;;;;5083292;28;20028;-61
2023/05/21 11:39:20;;;;;;;8.20;5.03;;;23.00;99.90;;;;;;5081224;28;20033;-60
2023/05/21 11:42:01;;;;;;;5.82;4.13;;;22.90;99.90;;;;;;5088983;28;20296;-61
2023/05/21 11:44:39;;;;;;;7.97;5.10;;;23.00;99.90;;;;;;5076801;28;20048;-61
2023/05/21 11:47:06;;;;;;;9.40;4.32;;;23.00;99.90;;;;;;5085458;28;20032;-61
2023/05/21 11:49:33;;;;;;;12.63;4.83;;;23.00;99.90;;;;;;5075304;28;20051;-61
2023/05/21 11:52:00;;;;;;;8.52;4.13;;;22.90;99.90;;;;;;5075176;28;20119;-61
2023/05/21 11:54:36;;;;;;;7.43;4.28;;;23.00;99.90;;;;;;5082452;28;20048;-60
2023/05/21 11:57:06;;;;;;;11.52;5.25;;;23.10;99.90;;;;;;5074862;28;20109;-61
2023/05/21 11:59:33;;;;;;;8.35;4.80;;;23.10;99.90;;;;;;5078506;28;20082;-61
2023/05/21 12:01:59;;;;;;;7.13;4.32;;;23.10;99.90;;;;;;5079913;28;20040;-61
2023/05/21 12:04:35;;;;;;;9.45;5.72;;;23.00;99.90;;;;;;5086352;28;20090;-60
2023/05/21 12:07:06;;;;;;;8.75;4.53;;;22.90;99.90;;;;;;5082031;28;20106;-60
2023/05/21 12:09:41;;;;;;;13.23;5.05;;;22.90;99.90;;;;;;5106936;28;20029;-60
2023/05/21 12:12:12;;;;;;;15.10;4.28;;;22.90;99.90;;;;;;5083990;28;20036;-60
2023/05/21 12:14:38;;;;;;;13.75;4.85;;;22.90;99.90;;;;;;5077135;28;20548;-60
2023/05/21 12:17:05;;;;;;;8.93;4.95;;;22.90;99.90;;;;;;5080414;28;20474;-60
2023/05/21 12:19:35;;;;;;;9.40;5.57;;;22.90;99.90;;;;;;5094703;28;20039;-60
2023/05/21 12:22:02;;;;;;;12.80;5.88;;;23.10;99.90;;;;;;5092678;28;20554;-60
2023/05/21 12:24:29;;;;;;;8.57;5.72;;;23.10;99.90;;;;;;5091529;28;20078;-60
2023/05/21 12:26:58;;;;;;;13.02;7.03;;;23.30;99.90;;;;;;5075117;28;20048;-60
2023/05/21 12:29:25;;;;;;;10.70;7.22;;;23.20;99.90;;;;;;5085622;28;20071;-60
2023/05/21 12:31:51;;;;;;;9.40;6.53;;;23.20;99.90;;;;;;5094109;28;20062;-59
2023/05/21 12:34:45;;;;;;;12.40;6.53;;;23.20;99.90;;;;;;5094162;28;20047;-60
2023/05/21 12:37:13;;;;;;;11.98;7.18;;;23.20;99.90;;;;;;5090159;28;20059;-59
2023/05/21 12:39:42;;;;;;;9.82;6.63;;;23.50;99.90;;;;;;5085812;28;20470;-60
2023/05/21 12:42:08;;;;;;;9.48;6.63;;;23.50;99.90;;;;;;5081070;28;20132;-59
2023/05/21 12:44:34;;;;;;;12.70;7.70;;;23.40;99.90;;;;;;5082763;28;20052;-60
2023/05/21 12:47:00;;;;;;;12.95;7.78;;;23.30;99.90;;;;;;5073712;28;20033;-60